createdAt,value
2018-07-05T00:00:18.858Z,25.53
2018-07-05T00:00:45.011Z,25.46
2018-07-05T00:01:11.149Z,25.54
2018-07-05T00:01:37.290Z,25.44
2018-07-05T00:02:03.457Z,25.46
2018-07-05T00:02:29.614Z,25.44
2018-07-05T00:02:55.774Z,25.4
2018-07-05T00:03:21.914Z,25.32
2018-07-05T00:03:48.052Z,25.29
2018-07-05T00:04:14.194Z,25.29
2018-07-05T00:04:40.335Z,25.31
2018-07-05T00:05:06.468Z,25.32
2018-07-05T00:05:32.609Z,25.33
2018-07-05T00:05:58.775Z,25.31
2018-07-05T00:06:24.919Z,25.33
2018-07-05T00:06:51.051Z,25.36
2018-07-05T00:07:17.194Z,25.32
2018-07-05T00:07:43.331Z,25.33
2018-07-05T00:08:09.466Z,25.36
2018-07-05T00:08:35.606Z,25.33
2018-07-05T00:09:01.754Z,25.33
2018-07-05T00:09:27.886Z,25.31
2018-07-05T00:09:54.024Z,25.25
2018-07-05T00:10:20.162Z,25.36
2018-07-05T00:10:46.312Z,25.32
2018-07-05T00:12:08.414Z,25.18
2018-07-05T00:12:34.550Z,25.21
2018-07-05T00:13:00.695Z,25.16
2018-07-05T00:13:26.854Z,25.21
2018-07-05T00:13:52.995Z,25.25
2018-07-05T00:14:19.129Z,25.28
2018-07-05T00:14:45.271Z,25.21
2018-07-05T00:15:11.405Z,25.21
2018-07-05T00:15:37.551Z,25.22
2018-07-05T00:16:03.690Z,25.11
2018-07-05T00:16:29.829Z,25.11
2018-07-05T00:16:55.970Z,25.11
2018-07-05T00:17:22.114Z,25.14
2018-07-05T00:17:48.250Z,25.23
2018-07-05T00:18:14.384Z,25.1
2018-07-05T00:18:40.519Z,25.01
2018-07-05T00:19:06.659Z,25.03
2018-07-05T00:19:32.802Z,25.04
2018-07-05T00:19:58.943Z,25.01
2018-07-05T00:20:25.079Z,25.06
2018-07-05T00:20:51.231Z,25.03
2018-07-05T00:21:17.374Z,25.04
2018-07-05T00:21:43.517Z,25.03
2018-07-05T00:22:09.649Z,25.08
2018-07-05T00:22:35.824Z,25.04
2018-07-05T00:23:01.930Z,25.01
2018-07-05T00:23:28.065Z,24.89
2018-07-05T00:23:54.227Z,25.03
2018-07-05T00:24:20.369Z,24.98
2018-07-05T00:24:46.510Z,24.98
2018-07-05T00:25:12.644Z,24.89
2018-07-05T00:25:38.787Z,24.89
2018-07-05T00:26:04.921Z,24.86
2018-07-05T00:26:31.067Z,24.89
2018-07-05T00:26:57.196Z,24.84
2018-07-05T00:27:23.341Z,24.81
2018-07-05T00:27:49.474Z,24.88
2018-07-05T00:28:15.613Z,24.88
2018-07-05T00:28:41.754Z,24.89
2018-07-05T00:29:07.889Z,24.86
2018-07-05T00:29:34.035Z,24.88
2018-07-05T00:30:00.198Z,24.89
2018-07-05T00:30:26.339Z,24.91
2018-07-05T00:30:52.522Z,24.92
2018-07-05T00:31:18.661Z,24.85
2018-07-05T00:31:44.801Z,24.86
2018-07-05T00:32:10.944Z,24.89
2018-07-05T00:32:37.076Z,24.89
2018-07-05T00:33:03.223Z,24.88
2018-07-05T00:33:29.376Z,24.85
2018-07-05T00:33:55.521Z,24.84
2018-07-05T00:34:21.660Z,24.84
2018-07-05T00:34:47.817Z,24.84
2018-07-05T00:35:13.959Z,24.84
2018-07-05T00:35:40.103Z,24.78
2018-07-05T00:36:06.236Z,24.76
2018-07-05T00:36:32.381Z,24.8
2018-07-05T00:36:58.540Z,24.86
2018-07-05T00:37:24.681Z,24.85
2018-07-05T00:37:50.821Z,24.8
2018-07-05T00:38:16.962Z,24.89
2018-07-05T00:38:43.121Z,24.85
2018-07-05T00:39:09.265Z,24.78
2018-07-05T00:39:35.424Z,24.89
2018-07-05T00:40:01.559Z,24.84
2018-07-05T00:40:27.706Z,24.85
2018-07-05T00:40:53.872Z,24.8
2018-07-05T00:41:20.012Z,24.8
2018-07-05T00:41:46.159Z,24.84
2018-07-05T00:42:12.294Z,24.84
2018-07-05T00:42:38.466Z,24.84
2018-07-05T00:43:04.600Z,24.85
2018-07-05T00:43:30.768Z,24.85
2018-07-05T00:43:56.905Z,24.85
2018-07-05T00:44:23.062Z,24.88
2018-07-05T00:44:49.232Z,24.85
2018-07-05T00:45:15.368Z,24.89
2018-07-05T00:45:41.535Z,24.88
2018-07-05T00:46:07.673Z,24.86
2018-07-05T00:46:33.843Z,24.88
2018-07-05T00:46:59.984Z,24.91
2018-07-05T00:47:26.128Z,24.88
2018-07-05T00:47:52.265Z,24.89
2018-07-05T00:48:18.412Z,24.89
2018-07-05T00:48:44.549Z,24.81
2018-07-05T00:49:10.734Z,24.89
2018-07-05T00:49:36.874Z,24.84
2018-07-05T00:50:03.017Z,24.88
2018-07-05T00:50:29.154Z,24.84
2018-07-05T00:50:55.319Z,24.84
2018-07-05T00:51:21.526Z,24.77
2018-07-05T00:51:47.662Z,24.78
2018-07-05T00:52:13.821Z,24.68
2018-07-05T00:52:39.966Z,24.69
2018-07-05T00:53:06.108Z,24.68
2018-07-05T00:53:32.246Z,24.66
2018-07-05T00:53:58.413Z,24.63
2018-07-05T00:54:24.548Z,24.68
2018-07-05T00:54:50.722Z,24.66
2018-07-05T00:55:16.856Z,24.69
2018-07-05T00:55:42.998Z,24.69
2018-07-05T00:56:09.131Z,24.65
2018-07-05T00:56:35.266Z,24.63
2018-07-05T00:57:01.426Z,24.66
2018-07-05T00:57:27.571Z,24.65
2018-07-05T00:57:53.711Z,24.69
2018-07-05T00:58:19.846Z,24.65
2018-07-05T00:58:46.004Z,24.68
2018-07-05T00:59:12.125Z,24.7
2018-07-05T00:59:38.270Z,24.7
2018-07-05T01:00:04.421Z,24.63
2018-07-05T01:00:30.557Z,24.63
2018-07-05T01:00:56.691Z,24.68
2018-07-05T01:01:22.829Z,24.65
2018-07-05T01:01:48.963Z,24.7
2018-07-05T01:02:15.108Z,24.63
2018-07-05T01:02:41.245Z,24.7
2018-07-05T01:03:07.408Z,24.54
2018-07-05T01:03:33.559Z,24.54
2018-07-05T01:03:59.718Z,24.55
2018-07-05T01:04:25.856Z,24.57
2018-07-05T01:04:52.000Z,24.55
2018-07-05T01:05:18.154Z,24.58
2018-07-05T01:05:44.293Z,24.51
2018-07-05T01:06:10.436Z,24.5
2018-07-05T01:06:36.574Z,24.5
2018-07-05T01:07:02.713Z,24.47
2018-07-05T01:07:28.884Z,24.48
2018-07-05T01:07:55.016Z,24.53
2018-07-05T01:08:21.161Z,24.47
2018-07-05T01:08:47.298Z,24.45
2018-07-05T01:09:13.434Z,24.47
2018-07-05T01:09:39.602Z,24.48
2018-07-05T01:10:05.765Z,24.5
2018-07-05T01:10:31.894Z,24.5
2018-07-05T01:10:58.064Z,24.48
2018-07-05T01:11:24.212Z,24.4
2018-07-05T01:11:50.368Z,24.42
2018-07-05T01:12:16.538Z,24.51
2018-07-05T01:12:42.765Z,24.51
2018-07-05T01:13:08.904Z,24.45
2018-07-05T01:13:35.041Z,24.51
2018-07-05T01:14:01.183Z,24.48
2018-07-05T01:14:27.322Z,24.45
2018-07-05T01:14:53.490Z,24.43
2018-07-05T01:15:19.630Z,24.43
2018-07-05T01:15:45.786Z,24.39
2018-07-05T01:16:11.931Z,24.42
2018-07-05T01:16:38.068Z,24.33
2018-07-05T01:17:04.232Z,24.32
2018-07-05T01:17:30.399Z,24.29
2018-07-05T01:17:56.539Z,24.3
2018-07-05T01:18:22.728Z,24.32
2018-07-05T01:18:48.910Z,24.29
2018-07-05T01:19:15.053Z,24.35
2018-07-05T01:19:41.185Z,24.29
2018-07-05T01:20:07.323Z,24.33
2018-07-05T01:20:33.490Z,24.33
2018-07-05T01:20:59.643Z,24.21
2018-07-05T01:21:25.787Z,24.18
2018-07-05T01:21:51.928Z,24.13
2018-07-05T01:22:18.064Z,24.08
2018-07-05T01:22:44.205Z,24.16
2018-07-05T01:23:10.349Z,24.02
2018-07-05T01:23:36.480Z,24.03
2018-07-05T01:24:02.632Z,24.05
2018-07-05T01:24:28.763Z,24.01
2018-07-05T01:24:54.949Z,24.01
2018-07-05T01:25:21.092Z,24.02
2018-07-05T01:25:47.257Z,24.05
2018-07-05T01:26:13.401Z,24.06
2018-07-05T01:26:39.538Z,24.03
2018-07-05T01:27:05.673Z,24.05
2018-07-05T01:27:31.815Z,24.14
2018-07-05T01:27:57.951Z,24.11
2018-07-05T01:28:24.123Z,24.08
2018-07-05T01:28:50.259Z,24.03
2018-07-05T01:29:16.394Z,24.1
2018-07-05T01:29:42.564Z,24.03
2018-07-05T01:30:08.732Z,24.03
2018-07-05T01:30:34.865Z,24.06
2018-07-05T01:31:01.014Z,24.05
2018-07-05T01:31:27.152Z,24.01
2018-07-05T01:31:53.289Z,24.02
2018-07-05T01:32:19.430Z,23.99
2018-07-05T01:32:45.571Z,24.01
2018-07-05T01:33:11.730Z,24.03
2018-07-05T01:33:37.873Z,23.99
2018-07-05T01:34:04.011Z,23.99
2018-07-05T01:34:30.149Z,23.93
2018-07-05T01:34:56.293Z,23.98
2018-07-05T01:35:22.436Z,23.91
2018-07-05T01:35:48.594Z,23.91
2018-07-05T01:36:14.739Z,23.92
2018-07-05T01:36:40.879Z,23.88
2018-07-05T01:37:07.014Z,23.91
2018-07-05T01:37:33.174Z,23.88
2018-07-05T01:37:59.310Z,23.83
2018-07-05T01:38:25.447Z,23.86
2018-07-05T01:38:51.608Z,23.91
2018-07-05T01:39:17.747Z,23.8
2018-07-05T01:39:43.885Z,23.84
2018-07-05T01:40:10.030Z,23.8
2018-07-05T01:40:36.186Z,23.8
2018-07-05T01:41:02.374Z,23.81
2018-07-05T01:41:28.536Z,23.83
2018-07-05T01:41:54.674Z,23.8
2018-07-05T01:42:20.816Z,23.86
2018-07-05T01:42:46.949Z,23.77
2018-07-05T01:43:13.095Z,23.84
2018-07-05T01:43:39.256Z,23.8
2018-07-05T01:44:05.394Z,23.77
2018-07-05T01:44:31.529Z,23.76
2018-07-05T01:44:57.674Z,23.8
2018-07-05T01:45:23.802Z,23.76
2018-07-05T01:45:49.944Z,23.76
2018-07-05T01:46:16.108Z,23.69
2018-07-05T01:46:42.247Z,23.71
2018-07-05T01:47:08.381Z,23.65
2018-07-05T01:47:34.524Z,23.69
2018-07-05T01:48:00.697Z,23.66
2018-07-05T01:48:26.831Z,23.74
2018-07-05T01:48:52.973Z,23.73
2018-07-05T01:49:19.358Z,23.76
2018-07-05T01:49:45.504Z,23.63
2018-07-05T01:50:11.650Z,23.61
2018-07-05T01:50:37.790Z,23.63
2018-07-05T01:51:03.934Z,23.68
2018-07-05T01:51:30.072Z,23.63
2018-07-05T01:51:56.212Z,23.66
2018-07-05T01:52:22.348Z,23.69
2018-07-05T01:52:48.491Z,23.66
2018-07-05T01:53:14.630Z,23.66
2018-07-05T01:53:40.765Z,23.58
2018-07-05T01:54:06.908Z,23.58
2018-07-05T01:54:33.040Z,23.63
2018-07-05T01:54:59.209Z,23.61
2018-07-05T01:55:25.377Z,23.59
2018-07-05T01:55:51.510Z,23.66
2018-07-05T01:56:17.651Z,23.59
2018-07-05T01:56:43.803Z,23.65
2018-07-05T01:57:09.953Z,23.69
2018-07-05T01:57:36.113Z,23.66
2018-07-05T01:58:02.255Z,23.69
2018-07-05T01:58:28.395Z,23.58
2018-07-05T01:58:54.534Z,23.59
2018-07-05T01:59:20.700Z,23.58
2018-07-05T01:59:46.836Z,23.56
2018-07-05T02:00:12.998Z,23.54
2018-07-05T02:00:39.161Z,23.44
2018-07-05T02:01:05.295Z,23.58
2018-07-05T02:01:31.462Z,23.61
2018-07-05T02:01:57.596Z,23.47
2018-07-05T02:02:23.753Z,23.47
2018-07-05T02:02:49.904Z,23.56
2018-07-05T02:03:16.045Z,23.5
2018-07-05T02:03:42.183Z,23.5
2018-07-05T02:04:08.352Z,23.43
2018-07-05T02:04:34.492Z,23.43
2018-07-05T02:05:00.681Z,23.5
2018-07-05T02:05:26.862Z,23.46
2018-07-05T02:05:53.003Z,23.32
2018-07-05T02:06:19.146Z,23.44
2018-07-05T02:06:45.290Z,23.4
2018-07-05T02:07:11.447Z,23.44
2018-07-05T02:07:37.593Z,23.39
2018-07-05T02:08:03.727Z,23.46
2018-07-05T02:08:29.873Z,23.48
2018-07-05T02:08:56.012Z,23.43
2018-07-05T02:09:22.185Z,23.43
2018-07-05T02:09:48.328Z,23.46
2018-07-05T02:10:14.462Z,23.36
2018-07-05T02:10:40.599Z,23.47
2018-07-05T02:11:06.761Z,23.43
2018-07-05T02:11:32.897Z,23.36
2018-07-05T02:11:59.040Z,23.37
2018-07-05T02:12:25.182Z,23.41
2018-07-05T02:12:51.317Z,23.4
2018-07-05T02:13:17.470Z,23.37
2018-07-05T02:13:43.602Z,23.27
2018-07-05T02:14:09.737Z,23.34
2018-07-05T02:14:35.943Z,23.34
2018-07-05T02:15:02.036Z,23.27
2018-07-05T02:15:28.181Z,23.31
2018-07-05T02:15:54.344Z,23.36
2018-07-05T02:16:20.523Z,23.32
2018-07-05T02:16:46.664Z,23.25
2018-07-05T02:17:12.821Z,23.32
2018-07-05T02:17:38.956Z,23.4
2018-07-05T02:18:05.100Z,23.34
2018-07-05T02:18:31.240Z,23.24
2018-07-05T02:18:57.394Z,23.23
2018-07-05T02:19:23.545Z,23.21
2018-07-05T02:19:49.697Z,23.17
2018-07-05T02:20:15.856Z,23.2
2018-07-05T02:20:41.989Z,23.2
2018-07-05T02:21:08.127Z,23.15
2018-07-05T02:21:34.263Z,23.18
2018-07-05T02:22:00.413Z,23.13
2018-07-05T02:22:26.552Z,23.15
2018-07-05T02:22:52.694Z,23.09
2018-07-05T02:23:18.848Z,23.17
2018-07-05T02:23:44.988Z,23.17
2018-07-05T02:24:11.144Z,23.13
2018-07-05T02:24:37.290Z,23.15
2018-07-05T02:25:03.429Z,23.2
2018-07-05T02:25:29.602Z,23.17
2018-07-05T02:25:55.743Z,23.15
2018-07-05T02:26:21.878Z,23.17
2018-07-05T02:26:48.013Z,23.08
2018-07-05T02:27:14.188Z,23
2018-07-05T02:27:40.362Z,23.03
2018-07-05T02:28:06.508Z,23.13
2018-07-05T02:28:32.635Z,23.05
2018-07-05T02:28:58.777Z,23.05
2018-07-05T02:29:24.921Z,23.06
2018-07-05T02:29:51.093Z,23.06
2018-07-05T02:30:17.283Z,23
2018-07-05T02:30:43.470Z,23.05
2018-07-05T02:31:09.653Z,23.03
2018-07-05T02:31:35.794Z,23.09
2018-07-05T02:32:01.936Z,23.05
2018-07-05T02:32:28.079Z,23.06
2018-07-05T02:32:54.217Z,23.03
2018-07-05T02:33:20.400Z,23.08
2018-07-05T02:33:46.540Z,23.03
2018-07-05T02:34:12.682Z,23.13
2018-07-05T02:34:38.865Z,23.12
2018-07-05T02:35:05.034Z,23.03
2018-07-05T02:35:31.193Z,23.03
2018-07-05T02:35:57.334Z,22.96
2018-07-05T02:36:23.473Z,22.88
2018-07-05T02:36:49.612Z,23.08
2018-07-05T02:37:15.777Z,23.02
2018-07-05T02:37:41.911Z,23.08
2018-07-05T02:38:08.056Z,23.02
2018-07-05T02:38:34.209Z,23.03
2018-07-05T02:39:00.355Z,22.96
2018-07-05T02:39:26.493Z,23.05
2018-07-05T02:39:52.654Z,23.13
2018-07-05T02:40:18.863Z,22.98
2018-07-05T02:40:45.049Z,23.09
2018-07-05T02:41:11.213Z,23.03
2018-07-05T02:41:37.352Z,23
2018-07-05T02:42:03.487Z,23.02
2018-07-05T02:42:29.633Z,22.99
2018-07-05T02:42:55.777Z,22.98
2018-07-05T02:43:21.956Z,23.02
2018-07-05T02:43:48.093Z,23.02
2018-07-05T02:44:14.238Z,22.96
2018-07-05T02:44:40.407Z,23.02
2018-07-05T02:45:06.566Z,23.02
2018-07-05T02:45:32.785Z,23.02
2018-07-05T02:45:58.915Z,22.94
2018-07-05T02:46:25.061Z,22.9
2018-07-05T02:46:51.225Z,22.94
2018-07-05T02:47:17.374Z,22.83
2018-07-05T02:47:43.560Z,22.94
2018-07-05T02:48:09.753Z,22.94
2018-07-05T02:48:35.894Z,22.91
2018-07-05T02:49:02.058Z,22.94
2018-07-05T02:49:28.255Z,22.9
2018-07-05T02:49:54.439Z,22.9
2018-07-05T02:50:20.604Z,22.93
2018-07-05T02:50:46.779Z,22.9
2018-07-05T02:51:12.935Z,22.88
2018-07-05T02:51:39.097Z,22.91
2018-07-05T02:52:05.263Z,22.88
2018-07-05T02:52:31.401Z,22.93
2018-07-05T02:52:57.576Z,22.93
2018-07-05T02:53:23.714Z,22.96
2018-07-05T02:53:49.929Z,22.93
2018-07-05T02:54:16.063Z,22.96
2018-07-05T02:54:42.204Z,22.94
2018-07-05T02:55:08.396Z,22.98
2018-07-05T02:55:34.582Z,22.84
2018-07-05T02:56:00.722Z,22.85
2018-07-05T02:56:26.903Z,22.93
2018-07-05T02:56:53.060Z,22.96
2018-07-05T02:57:19.209Z,22.83
2018-07-05T02:57:45.346Z,22.98
2018-07-05T02:58:11.488Z,22.94
2018-07-05T02:58:37.673Z,22.98
2018-07-05T02:59:03.815Z,22.87
2018-07-05T02:59:29.944Z,22.85
2018-07-05T02:59:56.117Z,22.87
2018-07-05T03:00:22.284Z,22.81
2018-07-05T03:00:48.436Z,22.87
2018-07-05T03:01:14.580Z,22.87
2018-07-05T03:01:40.718Z,22.81
2018-07-05T03:02:06.900Z,22.84
2018-07-05T03:02:33.065Z,22.85
2018-07-05T03:02:59.221Z,22.83
2018-07-05T03:03:25.367Z,22.87
2018-07-05T03:03:51.556Z,22.85
2018-07-05T03:04:17.712Z,22.8
2018-07-05T03:04:43.847Z,22.87
2018-07-05T03:05:10.041Z,22.87
2018-07-05T03:05:36.207Z,22.81
2018-07-05T03:06:02.421Z,22.85
2018-07-05T03:06:28.590Z,22.88
2018-07-05T03:06:54.722Z,22.81
2018-07-05T03:07:20.884Z,22.87
2018-07-05T03:07:47.029Z,22.81
2018-07-05T03:08:13.178Z,22.8
2018-07-05T03:08:39.352Z,22.81
2018-07-05T03:09:05.520Z,22.84
2018-07-05T03:09:31.687Z,22.83
2018-07-05T03:09:57.982Z,22.81
2018-07-05T03:10:24.445Z,22.87
2018-07-05T03:10:50.634Z,22.83
2018-07-05T03:11:16.994Z,22.88
2018-07-05T03:11:43.372Z,22.85
2018-07-05T03:12:09.674Z,22.81
2018-07-05T03:12:35.997Z,22.88
2018-07-05T03:13:02.364Z,22.84
2018-07-05T03:13:28.674Z,22.81
2018-07-05T03:13:55.094Z,22.87
2018-07-05T03:14:21.395Z,22.81
2018-07-05T03:14:47.559Z,22.83
2018-07-05T03:15:13.739Z,22.84
2018-07-05T03:15:39.910Z,22.78
2018-07-05T03:16:06.071Z,22.7
2018-07-05T03:16:32.209Z,22.73
2018-07-05T03:16:58.346Z,22.75
2018-07-05T03:17:24.514Z,22.7
2018-07-05T03:17:50.729Z,22.68
2018-07-05T03:18:16.887Z,22.73
2018-07-05T03:18:43.026Z,22.68
2018-07-05T03:19:09.172Z,22.66
2018-07-05T03:19:35.343Z,22.72
2018-07-05T03:20:01.494Z,22.7
2018-07-05T03:20:27.659Z,22.6
2018-07-05T03:20:53.817Z,22.63
2018-07-05T03:21:19.986Z,22.51
2018-07-05T03:21:46.125Z,22.48
2018-07-05T03:22:12.280Z,22.62
2018-07-05T03:22:38.426Z,22.5
2018-07-05T03:23:04.590Z,22.53
2018-07-05T03:23:30.780Z,22.5
2018-07-05T03:23:56.971Z,22.57
2018-07-05T03:24:23.155Z,22.53
2018-07-05T03:24:49.298Z,22.54
2018-07-05T03:25:15.436Z,22.55
2018-07-05T03:25:41.571Z,22.6
2018-07-05T03:26:07.710Z,22.66
2018-07-05T03:26:33.851Z,22.59
2018-07-05T03:26:59.983Z,22.59
2018-07-05T03:27:26.125Z,22.59
2018-07-05T03:27:52.290Z,22.59
2018-07-05T03:28:18.455Z,22.66
2018-07-05T03:28:44.587Z,22.63
2018-07-05T03:29:10.724Z,22.65
2018-07-05T03:29:36.859Z,22.62
2018-07-05T03:30:03.015Z,22.54
2018-07-05T03:30:29.181Z,22.53
2018-07-05T03:30:55.365Z,22.47
2018-07-05T03:31:21.532Z,22.41
2018-07-05T03:31:47.705Z,22.36
2018-07-05T03:32:13.842Z,22.36
2018-07-05T03:32:39.983Z,22.43
2018-07-05T03:33:06.121Z,22.38
2018-07-05T03:33:32.261Z,22.45
2018-07-05T03:33:58.395Z,22.39
2018-07-05T03:34:24.539Z,22.32
2018-07-05T03:34:50.697Z,22.32
2018-07-05T03:35:16.832Z,22.39
2018-07-05T03:35:42.978Z,22.39
2018-07-05T03:36:09.141Z,22.44
2018-07-05T03:36:35.280Z,22.36
2018-07-05T03:37:01.425Z,22.39
2018-07-05T03:37:27.562Z,22.35
2018-07-05T03:37:53.696Z,22.29
2018-07-05T03:38:19.836Z,22.26
2018-07-05T03:38:45.978Z,22.3
2018-07-05T03:39:12.111Z,22.25
2018-07-05T03:39:38.255Z,22.32
2018-07-05T03:40:04.390Z,22.18
2018-07-05T03:40:30.549Z,22.32
2018-07-05T03:40:56.693Z,22.3
2018-07-05T03:41:22.851Z,22.17
2018-07-05T03:41:48.988Z,22.17
2018-07-05T03:42:15.141Z,22.15
2018-07-05T03:42:41.286Z,22.18
2018-07-05T03:43:07.433Z,22.17
2018-07-05T03:43:33.564Z,22.17
2018-07-05T03:43:59.706Z,22.18
2018-07-05T03:44:25.847Z,22.2
2018-07-05T03:44:51.987Z,22.1
2018-07-05T03:45:18.126Z,22.02
2018-07-05T03:45:44.298Z,22.02
2018-07-05T03:46:10.434Z,21.98
2018-07-05T03:46:36.541Z,22.06
2018-07-05T03:47:02.701Z,22.07
2018-07-05T03:47:28.844Z,22.1
2018-07-05T03:47:54.979Z,22.06
2018-07-05T03:48:21.124Z,22.02
2018-07-05T03:48:47.283Z,21.95
2018-07-05T03:49:13.440Z,22.04
2018-07-05T03:49:39.567Z,22.04
2018-07-05T03:50:05.724Z,22.06
2018-07-05T03:50:31.866Z,22.02
2018-07-05T03:50:58.003Z,22.08
2018-07-05T03:51:24.143Z,22.08
2018-07-05T03:51:50.281Z,22.07
2018-07-05T03:52:16.441Z,22.08
2018-07-05T03:52:42.583Z,22.1
2018-07-05T03:53:08.742Z,22.08
2018-07-05T03:53:34.885Z,22.13
2018-07-05T03:54:01.023Z,22.1
2018-07-05T03:54:27.163Z,22.17
2018-07-05T03:54:53.295Z,22.18
2018-07-05T03:55:19.431Z,22.15
2018-07-05T03:55:45.572Z,22.14
2018-07-05T03:56:11.712Z,22.15
2018-07-05T03:56:37.850Z,22.17
2018-07-05T03:57:03.988Z,22.14
2018-07-05T03:57:30.125Z,22.1
2018-07-05T03:57:56.265Z,22.18
2018-07-05T03:58:22.406Z,22.14
2018-07-05T03:58:48.563Z,22.18
2018-07-05T03:59:14.713Z,22.23
2018-07-05T03:59:40.863Z,22.13
2018-07-05T04:00:07.003Z,22.23
2018-07-05T04:00:33.143Z,22.18
2018-07-05T04:00:59.286Z,22.3
2018-07-05T04:01:25.422Z,22.33
2018-07-05T04:01:51.567Z,22.32
2018-07-05T04:02:17.702Z,22.29
2018-07-05T04:02:43.890Z,22.29
2018-07-05T04:03:10.034Z,22.3
2018-07-05T04:03:36.177Z,22.23
2018-07-05T04:04:02.333Z,22.14
2018-07-05T04:04:28.523Z,22.18
2018-07-05T04:04:54.642Z,22.23
2018-07-05T04:05:20.780Z,22.22
2018-07-05T04:05:46.941Z,22.15
2018-07-05T04:06:13.088Z,22.2
2018-07-05T04:06:39.254Z,22.17
2018-07-05T04:07:05.416Z,22.15
2018-07-05T04:07:31.554Z,22.22
2018-07-05T04:07:57.696Z,22.17
2018-07-05T04:08:23.893Z,22.23
2018-07-05T04:08:49.970Z,22.15
2018-07-05T04:09:16.149Z,22.13
2018-07-05T04:09:42.285Z,22.11
2018-07-05T04:10:08.428Z,22.15
2018-07-05T04:10:34.558Z,22.14
2018-07-05T04:11:00.697Z,22.18
2018-07-05T04:11:26.863Z,22.23
2018-07-05T04:11:53.009Z,22.26
2018-07-05T04:12:19.161Z,22.38
2018-07-05T04:12:45.330Z,22.29
2018-07-05T04:13:11.471Z,22.32
2018-07-05T04:13:37.610Z,22.26
2018-07-05T04:14:03.749Z,22.2
2018-07-05T04:14:29.886Z,22.22
2018-07-05T04:14:56.028Z,22.25
2018-07-05T04:15:22.159Z,22.15
2018-07-05T04:15:48.360Z,22.18
2018-07-05T04:16:14.456Z,22.15
2018-07-05T04:16:40.600Z,22.29
2018-07-05T04:17:06.763Z,22.28
2018-07-05T04:17:32.929Z,22.2
2018-07-05T04:17:59.068Z,22.23
2018-07-05T04:18:25.213Z,22.15
2018-07-05T04:18:51.374Z,22.18
2018-07-05T04:19:17.514Z,22.23
2018-07-05T04:19:43.647Z,22.29
2018-07-05T04:20:09.813Z,22.33
2018-07-05T04:20:35.959Z,22.36
2018-07-05T04:21:02.094Z,22.39
2018-07-05T04:21:28.234Z,22.45
2018-07-05T04:21:54.366Z,22.43
2018-07-05T04:22:20.507Z,22.43
2018-07-05T04:22:46.668Z,22.32
2018-07-05T04:23:12.818Z,22.41
2018-07-05T04:23:38.952Z,22.39
2018-07-05T04:24:05.184Z,22.36
2018-07-05T04:24:31.271Z,22.45
2018-07-05T04:24:57.427Z,22.41
2018-07-05T04:25:23.547Z,22.45
2018-07-05T04:25:49.691Z,22.48
2018-07-05T04:26:15.826Z,22.5
2018-07-05T04:26:41.963Z,22.51
2018-07-05T04:27:08.108Z,22.54
2018-07-05T04:27:34.243Z,22.51
2018-07-05T04:28:00.385Z,22.54
2018-07-05T04:28:26.522Z,22.59
2018-07-05T04:28:52.662Z,22.66
2018-07-05T04:29:18.828Z,22.7
2018-07-05T04:29:44.989Z,22.76
2018-07-05T04:30:11.137Z,22.87
2018-07-05T04:30:37.268Z,22.76
2018-07-05T04:31:03.410Z,22.81
2018-07-05T04:31:29.541Z,22.84
2018-07-05T04:31:55.679Z,22.91
2018-07-05T04:32:21.843Z,22.93
2018-07-05T04:32:47.990Z,22.93
2018-07-05T04:33:14.151Z,22.9
2018-07-05T04:33:40.323Z,22.87
2018-07-05T04:34:06.513Z,22.87
2018-07-05T04:34:32.601Z,22.7
2018-07-05T04:34:58.746Z,22.66
2018-07-05T04:35:24.887Z,22.69
2018-07-05T04:35:51.058Z,22.75
2018-07-05T04:36:17.187Z,22.63
2018-07-05T04:36:43.325Z,22.72
2018-07-05T04:37:09.489Z,22.54
2018-07-05T04:37:35.649Z,22.54
2018-07-05T04:38:01.784Z,22.63
2018-07-05T04:38:27.926Z,22.59
2018-07-05T04:38:54.080Z,22.63
2018-07-05T04:39:20.221Z,22.73
2018-07-05T04:39:46.353Z,22.63
2018-07-05T04:40:12.494Z,22.68
2018-07-05T04:40:38.631Z,22.69
2018-07-05T04:41:04.777Z,22.83
2018-07-05T04:41:30.942Z,22.85
2018-07-05T04:41:57.080Z,22.8
2018-07-05T04:42:23.220Z,22.78
2018-07-05T04:42:49.359Z,22.83
2018-07-05T04:43:15.495Z,22.81
2018-07-05T04:43:41.666Z,22.88
2018-07-05T04:44:07.801Z,22.93
2018-07-05T04:44:33.934Z,22.94
2018-07-05T04:45:00.084Z,22.91
2018-07-05T04:45:26.243Z,22.98
2018-07-05T04:45:52.380Z,22.99
2018-07-05T04:46:18.515Z,23.03
2018-07-05T04:46:44.656Z,23.15
2018-07-05T04:47:10.795Z,23.31
2018-07-05T04:47:36.935Z,23.54
2018-07-05T04:48:03.079Z,23.69
2018-07-05T04:48:29.219Z,23.83
2018-07-05T04:48:55.381Z,24.08
2018-07-05T04:49:21.518Z,24.21
2018-07-05T04:49:47.657Z,24.43
2018-07-05T04:50:13.806Z,24.58
2018-07-05T04:50:39.989Z,24.65
2018-07-05T04:51:06.123Z,24.81
2018-07-05T04:51:32.264Z,25.04
2018-07-05T04:51:58.429Z,25.16
2018-07-05T04:52:24.589Z,25.32
2018-07-05T04:52:50.729Z,25.36
2018-07-05T04:53:16.865Z,25.31
2018-07-05T04:53:43.026Z,25.36
2018-07-05T04:54:09.160Z,25.4
2018-07-05T04:54:35.301Z,25.48
2018-07-05T04:55:01.440Z,25.5
2018-07-05T04:55:27.594Z,25.6
2018-07-05T04:55:53.714Z,25.58
2018-07-05T04:56:19.865Z,25.62
2018-07-05T04:56:46.023Z,25.6
2018-07-05T04:57:12.161Z,25.62
2018-07-05T04:57:38.297Z,25.77
2018-07-05T04:58:04.438Z,25.8
2018-07-05T04:58:30.572Z,25.95
2018-07-05T04:58:56.709Z,26.1
2018-07-05T04:59:22.850Z,26.28
2018-07-05T04:59:48.981Z,26.31
2018-07-05T05:00:15.145Z,26.44
2018-07-05T05:00:41.283Z,26.6
2018-07-05T05:01:07.416Z,26.62
2018-07-05T05:01:33.563Z,26.77
2018-07-05T05:01:59.699Z,26.92
2018-07-05T05:02:25.887Z,27.05
2018-07-05T05:02:51.984Z,27.02
2018-07-05T05:03:18.116Z,27.17
2018-07-05T05:03:44.264Z,27.3
2018-07-05T05:04:10.399Z,27.4
2018-07-05T05:04:36.546Z,27.4
2018-07-05T05:05:02.679Z,27.45
2018-07-05T05:05:28.815Z,27.73
2018-07-05T05:05:54.958Z,27.71
2018-07-05T05:06:21.103Z,27.83
2018-07-05T05:06:47.241Z,27.87
2018-07-05T05:07:13.377Z,28.01
2018-07-05T05:07:39.524Z,28.05
2018-07-05T05:08:05.663Z,28.07
2018-07-05T05:08:31.804Z,28.05
2018-07-05T05:08:57.945Z,28
2018-07-05T05:09:24.141Z,27.98
2018-07-05T05:09:50.277Z,28.02
2018-07-05T05:10:16.436Z,28.15
2018-07-05T05:10:42.582Z,28.11
2018-07-05T05:11:08.721Z,28.1
2018-07-05T05:11:34.857Z,28.07
2018-07-05T05:12:01.015Z,28.12
2018-07-05T05:12:27.155Z,28.14
2018-07-05T05:12:53.304Z,28.15
2018-07-05T05:13:19.440Z,28.08
2018-07-05T05:13:45.606Z,28.04
2018-07-05T05:14:11.750Z,27.92
2018-07-05T05:14:37.916Z,27.8
2018-07-05T05:15:04.107Z,27.73
2018-07-05T05:15:30.210Z,27.6
2018-07-05T05:15:56.384Z,27.32
2018-07-05T05:16:22.555Z,27.22
2018-07-05T05:16:48.723Z,27.11
2018-07-05T05:17:14.861Z,27.05
2018-07-05T05:17:41.008Z,26.93
2018-07-05T05:18:07.145Z,27
2018-07-05T05:18:33.282Z,26.88
2018-07-05T05:18:59.556Z,26.81
2018-07-05T05:19:25.611Z,26.74
2018-07-05T05:19:51.766Z,26.65
2018-07-05T05:20:17.934Z,26.65
2018-07-05T05:20:44.071Z,26.62
2018-07-05T05:21:10.213Z,26.51
2018-07-05T05:21:36.353Z,26.38
2018-07-05T05:22:02.494Z,26.37
2018-07-05T05:22:28.648Z,26.29
2018-07-05T05:22:54.793Z,26.31
2018-07-05T05:23:20.949Z,26.15
2018-07-05T05:23:47.088Z,26.13
2018-07-05T05:24:13.288Z,26.13
2018-07-05T05:24:39.418Z,26.1
2018-07-05T05:25:05.561Z,26.09
2018-07-05T05:25:31.729Z,26.03
2018-07-05T05:25:57.866Z,26.02
2018-07-05T05:26:24.028Z,25.98
2018-07-05T05:26:50.163Z,25.99
2018-07-05T05:27:16.308Z,25.88
2018-07-05T05:27:42.452Z,25.93
2018-07-05T05:28:08.591Z,25.98
2018-07-05T05:28:34.726Z,25.95
2018-07-05T05:29:00.870Z,25.84
2018-07-05T05:29:27.017Z,25.84
2018-07-05T05:29:53.193Z,25.78
2018-07-05T05:30:19.324Z,25.87
2018-07-05T05:30:45.466Z,25.81
2018-07-05T05:31:11.608Z,25.73
2018-07-05T05:31:37.773Z,25.81
2018-07-05T05:32:03.926Z,25.83
2018-07-05T05:32:30.091Z,25.75
2018-07-05T05:32:56.233Z,25.77
2018-07-05T05:33:22.371Z,25.78
2018-07-05T05:33:48.510Z,25.77
2018-07-05T05:34:14.646Z,25.7
2018-07-05T05:34:40.788Z,25.73
2018-07-05T05:35:06.923Z,25.6
2018-07-05T05:35:33.063Z,25.65
2018-07-05T05:35:59.207Z,25.65
2018-07-05T05:36:25.369Z,25.72
2018-07-05T05:36:51.515Z,25.77
2018-07-05T05:37:17.654Z,25.7
2018-07-05T05:37:43.789Z,25.6
2018-07-05T05:38:09.934Z,25.58
2018-07-05T05:38:36.071Z,25.54
2018-07-05T05:39:02.343Z,25.54